createdAt,value
2023-05-18T00:01:41.096Z,5.90
2023-05-18T00:04:09.986Z,5.80
2023-05-18T00:06:38.290Z,5.80
2023-05-18T00:09:06.470Z,5.80
2023-05-18T00:11:39.638Z,5.70
2023-05-18T00:14:08.232Z,5.70
2023-05-18T00:16:36.589Z,5.60
2023-05-18T00:19:05.147Z,5.60
2023-05-18T00:21:33.660Z,5.60
2023-05-18T00:24:01.959Z,5.60
2023-05-18T00:26:32.556Z,5.60
2023-05-18T00:29:02.169Z,5.60
2023-05-18T00:31:30.454Z,5.60
2023-05-18T00:33:58.668Z,5.50
2023-05-18T00:36:26.836Z,5.50
2023-05-18T00:38:55.027Z,5.40
2023-05-18T00:41:23.235Z,5.40
2023-05-18T00:43:51.402Z,5.40
2023-05-18T00:46:21.281Z,5.40
2023-05-18T00:48:49.943Z,5.30
2023-05-18T00:51:18.183Z,5.30
2023-05-18T00:53:46.758Z,5.20
2023-05-18T00:56:16.351Z,5.20
2023-05-18T00:58:44.572Z,5.20
2023-05-18T01:01:12.899Z,5.20
2023-05-18T01:03:43.241Z,5.10
2023-05-18T01:06:12.982Z,5.10
2023-05-18T01:08:42.139Z,5.10
2023-05-18T01:11:16.016Z,5.10
2023-05-18T01:13:48.283Z,5.00
2023-05-18T01:16:21.738Z,5.00
2023-05-18T01:18:58.915Z,5.00
2023-05-18T01:21:36.593Z,5.00
2023-05-18T01:24:17.561Z,4.90
2023-05-18T01:26:47.931Z,4.90
2023-05-18T01:29:16.753Z,4.80
2023-05-18T01:31:45.146Z,4.80
2023-05-18T01:34:13.469Z,4.80
2023-05-18T01:36:41.656Z,4.70
2023-05-18T01:39:10.425Z,4.70
2023-05-18T01:41:40.559Z,4.60
2023-05-18T01:44:15.129Z,4.60
2023-05-18T01:46:48.244Z,4.50
2023-05-18T01:49:18.582Z,4.50
2023-05-18T01:51:47.855Z,4.50
2023-05-18T01:54:17.396Z,4.40
2023-05-18T01:56:46.184Z,4.40
2023-05-18T01:59:15.986Z,4.30
2023-05-18T02:01:45.217Z,4.30
2023-05-18T02:04:13.648Z,4.30
2023-05-18T02:06:41.830Z,4.20
2023-05-18T02:09:10.058Z,4.20
2023-05-18T02:11:38.256Z,4.20
2023-05-18T02:14:06.424Z,4.20
2023-05-18T02:16:36.022Z,4.20
2023-05-18T02:19:04.682Z,4.20
2023-05-18T02:21:34.702Z,4.20
2023-05-18T02:24:02.916Z,4.10
2023-05-18T02:26:31.484Z,4.10
2023-05-18T02:28:59.713Z,4.10
2023-05-18T02:31:29.581Z,4.10
2023-05-18T02:33:59.240Z,4.00
2023-05-18T02:36:27.410Z,4.00
2023-05-18T02:38:55.967Z,3.90
2023-05-18T02:41:24.131Z,3.90
2023-05-18T02:43:52.255Z,3.90
2023-05-18T02:46:20.720Z,3.90
2023-05-18T02:48:48.960Z,3.80
2023-05-18T02:51:19.186Z,3.80
2023-05-18T02:53:47.433Z,3.70
2023-05-18T02:56:15.720Z,3.70
2023-05-18T02:58:44.509Z,3.60
2023-05-18T03:01:13.454Z,3.60
2023-05-18T03:03:43.337Z,3.60
2023-05-18T03:06:11.587Z,3.60
2023-05-18T03:08:41.127Z,3.50
2023-05-18T03:11:09.315Z,3.60
2023-05-18T03:13:37.511Z,3.50
2023-05-18T03:16:06.439Z,3.60
2023-05-18T03:18:34.601Z,3.50
2023-05-18T03:21:03.442Z,3.50
2023-05-18T03:23:31.630Z,3.60
2023-05-18T03:26:02.660Z,3.60
2023-05-18T03:28:30.976Z,3.60
2023-05-18T03:30:59.197Z,3.70
2023-05-18T03:33:28.203Z,3.70
2023-05-18T03:35:56.550Z,3.80
2023-05-18T03:38:24.716Z,3.80
2023-05-18T03:40:52.914Z,3.90
2023-05-18T03:43:25.303Z,4.00
2023-05-18T03:45:53.626Z,4.00
2023-05-18T03:48:22.315Z,4.10
2023-05-18T03:50:50.546Z,4.20
2023-05-18T03:53:19.380Z,4.30
2023-05-18T03:55:49.168Z,4.30
2023-05-18T03:58:17.382Z,4.40
2023-05-18T04:00:47.403Z,4.50
2023-05-18T04:03:15.715Z,4.50
2023-05-18T04:05:44.562Z,4.60
2023-05-18T04:08:14.864Z,4.60
2023-05-18T04:10:43.440Z,4.70
2023-05-18T04:13:11.938Z,4.80
2023-05-18T04:15:40.138Z,4.80
2023-05-18T04:18:10.397Z,4.90
2023-05-18T04:20:39.071Z,5.00
2023-05-18T04:23:09.664Z,5.10
2023-05-18T04:25:39.498Z,5.20
2023-05-18T04:28:08.309Z,5.30
2023-05-18T04:30:37.602Z,5.40
2023-05-18T04:33:06.639Z,5.50
2023-05-18T04:35:36.475Z,5.50
2023-05-18T04:38:05.233Z,5.60
2023-05-18T04:40:34.542Z,5.70
2023-05-18T04:43:04.006Z,5.80
2023-05-18T04:45:34.236Z,5.90
2023-05-18T04:48:02.928Z,6.10
2023-05-18T04:50:31.157Z,6.20
2023-05-18T04:53:02.637Z,6.50
2023-05-18T04:55:31.306Z,6.70
2023-05-18T04:58:01.280Z,7.00
2023-05-18T05:00:30.201Z,7.40
2023-05-18T05:02:59.175Z,7.60
2023-05-18T05:05:27.822Z,8.00
2023-05-18T05:07:57.566Z,8.30
2023-05-18T05:10:28.077Z,8.60
2023-05-18T05:12:56.643Z,8.70
2023-05-18T05:15:25.070Z,8.90
2023-05-18T05:17:53.804Z,9.20
2023-05-18T05:20:22.138Z,9.50
2023-05-18T05:22:50.751Z,9.70
2023-05-18T05:25:19.012Z,9.80
2023-05-18T05:27:48.571Z,9.90
2023-05-18T05:30:16.909Z,10.00
2023-05-18T05:32:45.125Z,10.00
2023-05-18T05:35:13.380Z,10.00
2023-05-18T05:37:41.800Z,10.20
2023-05-18T05:40:10.649Z,10.50
2023-05-18T05:42:38.816Z,10.90
2023-05-18T05:45:09.915Z,11.20
2023-05-18T05:47:38.149Z,11.20
2023-05-18T05:50:06.729Z,10.90
2023-05-18T05:52:34.951Z,10.40
2023-05-18T05:55:04.077Z,10.20
2023-05-18T05:57:32.226Z,10.20
2023-05-18T06:00:01.685Z,10.10
2023-05-18T06:02:31.540Z,10.10
2023-05-18T06:04:59.833Z,9.90
2023-05-18T06:07:28.257Z,9.90
2023-05-18T06:09:56.467Z,10.10
2023-05-18T06:12:24.733Z,10.60
2023-05-18T06:14:57.271Z,10.90
2023-05-18T06:17:25.552Z,11.30
2023-05-18T06:19:55.202Z,11.40
2023-05-18T06:22:24.534Z,11.30
2023-05-18T06:24:52.885Z,11.80
2023-05-18T06:27:21.035Z,12.20
2023-05-18T06:29:49.197Z,12.50
2023-05-18T06:32:17.606Z,12.20
2023-05-18T06:34:47.272Z,12.80
2023-05-18T06:37:17.344Z,13.20
2023-05-18T06:39:45.637Z,13.60
2023-05-18T06:42:13.799Z,13.60
2023-05-18T06:44:41.966Z,14.10
2023-05-18T06:47:10.165Z,14.40
2023-05-18T06:49:38.650Z,14.60
2023-05-18T06:52:08.725Z,15.00
2023-05-18T06:54:38.338Z,15.10
2023-05-18T06:57:06.848Z,15.50
2023-05-18T06:59:35.870Z,15.80
2023-05-18T07:02:04.197Z,15.70
2023-05-18T07:04:32.910Z,16.00
2023-05-18T07:07:01.396Z,15.70
2023-05-18T07:09:29.698Z,16.00
2023-05-18T07:11:59.196Z,16.50
2023-05-18T07:14:27.488Z,16.80
2023-05-18T07:16:56.166Z,17.20
2023-05-18T07:19:24.462Z,17.40
2023-05-18T07:21:52.753Z,17.60
2023-05-18T07:24:20.982Z,17.80
2023-05-18T07:26:49.172Z,17.90
2023-05-18T07:29:18.747Z,17.80
2023-05-18T07:31:47.383Z,17.80
2023-05-18T07:34:15.701Z,18.10
2023-05-18T07:36:43.910Z,18.30
2023-05-18T07:39:19.505Z,18.70
2023-05-18T07:41:48.477Z,18.80
2023-05-18T07:44:18.098Z,19.10
2023-05-18T07:46:46.377Z,19.30
2023-05-18T07:49:14.618Z,19.70
2023-05-18T07:51:43.102Z,18.90
2023-05-18T07:54:11.263Z,18.70
2023-05-18T07:56:39.454Z,18.40
2023-05-18T07:59:08.044Z,17.50
2023-05-18T08:01:38.386Z,16.90
2023-05-18T08:04:07.428Z,16.90
2023-05-18T08:06:35.625Z,17.60
2023-05-18T08:09:04.180Z,18.50
2023-05-18T08:11:32.494Z,19.10
2023-05-18T08:14:00.839Z,18.90
2023-05-18T08:16:29.029Z,19.00
2023-05-18T08:18:58.648Z,19.90
2023-05-18T08:21:26.865Z,19.70
2023-05-18T08:23:55.028Z,19.60
2023-05-18T08:26:24.477Z,19.50
2023-05-18T08:28:52.656Z,19.90
2023-05-18T08:31:21.148Z,19.70
2023-05-18T08:33:49.906Z,20.20
2023-05-18T08:36:19.464Z,20.70
2023-05-18T08:38:47.676Z,20.40
2023-05-18T08:41:21.015Z,19.70
2023-05-18T08:43:50.274Z,19.80
2023-05-18T08:46:21.310Z,18.70
2023-05-18T08:48:50.467Z,18.70
2023-05-18T08:51:21.120Z,19.10
2023-05-18T08:53:52.646Z,19.50
2023-05-18T08:56:23.276Z,19.90
2023-05-18T08:58:53.400Z,19.50
2023-05-18T09:01:22.883Z,19.10
2023-05-18T09:03:51.576Z,18.80
2023-05-18T09:06:22.285Z,18.00
2023-05-18T09:08:53.646Z,18.70
2023-05-18T09:11:23.036Z,19.30
2023-05-18T09:13:51.628Z,21.00
2023-05-18T09:16:19.879Z,21.40
2023-05-18T09:18:48.098Z,22.20
2023-05-18T09:21:16.446Z,22.60
2023-05-18T09:23:46.339Z,22.50
2023-05-18T09:26:14.597Z,22.70
2023-05-18T09:28:43.254Z,21.80
2023-05-18T09:31:13.389Z,21.30
2023-05-18T09:33:41.843Z,21.80
2023-05-18T09:36:10.573Z,22.10
2023-05-18T09:38:39.258Z,23.00
2023-05-18T09:41:12.607Z,22.00
2023-05-18T09:43:41.052Z,21.20
2023-05-18T09:46:09.494Z,21.10
2023-05-18T09:48:38.015Z,21.00
2023-05-18T09:51:07.118Z,22.60
2023-05-18T09:53:36.405Z,24.00
2023-05-18T09:56:05.420Z,23.50
2023-05-18T09:58:35.147Z,22.40
2023-05-18T10:01:03.468Z,22.40
2023-05-18T10:03:33.492Z,22.00
2023-05-18T10:06:04.059Z,22.10
2023-05-18T10:08:32.267Z,21.40
2023-05-18T10:11:00.877Z,21.90
2023-05-18T10:13:31.514Z,21.20
2023-05-18T10:16:01.908Z,20.10
2023-05-18T10:18:31.394Z,21.10
2023-05-18T10:21:00.538Z,22.60
2023-05-18T10:23:31.649Z,23.40
2023-05-18T10:26:00.025Z,23.90
2023-05-18T10:28:29.006Z,24.30
2023-05-18T10:30:57.934Z,24.60
2023-05-18T10:33:29.861Z,24.40
2023-05-18T10:35:58.714Z,23.80
2023-05-18T10:38:27.652Z,23.60
2023-05-18T10:40:56.684Z,23.30
2023-05-18T10:43:27.468Z,23.40
2023-05-18T10:45:57.168Z,22.90
2023-05-18T10:48:27.483Z,22.40
2023-05-18T10:50:56.648Z,22.50
2023-05-18T10:53:26.688Z,22.60
2023-05-18T10:55:55.667Z,22.90
2023-05-18T10:58:25.957Z,22.70
2023-05-18T11:00:56.174Z,22.80
2023-05-18T11:03:25.797Z,21.90
2023-05-18T11:06:05.175Z,22.40
2023-05-18T11:08:33.629Z,22.90
2023-05-18T11:11:03.367Z,22.70
2023-05-18T11:13:32.494Z,21.80
2023-05-18T11:16:05.217Z,22.00
2023-05-18T11:18:37.762Z,22.50
2023-05-18T11:21:19.512Z,21.90
2023-05-18T11:24:02.575Z,22.20
2023-05-18T11:26:31.222Z,21.60
2023-05-18T11:28:59.819Z,21.90
2023-05-18T11:31:44.213Z,22.50
2023-05-18T11:34:31.727Z,22.50
2023-05-18T11:37:01.486Z,22.40
2023-05-18T11:39:29.702Z,22.90
2023-05-18T11:42:01.900Z,22.60
2023-05-18T11:44:30.304Z,23.10
2023-05-18T11:47:02.108Z,24.50
2023-05-18T11:49:32.037Z,24.70
2023-05-18T11:52:05.915Z,24.60
2023-05-18T11:54:40.473Z,24.70
2023-05-18T11:57:09.886Z,24.50
2023-05-18T11:59:39.597Z,23.80
2023-05-18T12:02:10.598Z,23.60
2023-05-18T12:04:43.859Z,24.20
2023-05-18T12:07:13.642Z,24.50
2023-05-18T12:09:43.077Z,24.00
2023-05-18T12:12:12.636Z,24.40
2023-05-18T12:14:45.577Z,24.20
2023-05-18T12:17:14.047Z,24.90
2023-05-18T12:19:45.421Z,25.20
2023-05-18T12:22:14.981Z,25.80
2023-05-18T12:24:43.597Z,25.90
2023-05-18T12:27:12.462Z,24.20
2023-05-18T12:29:41.519Z,24.50
2023-05-18T12:32:10.585Z,24.50
2023-05-18T12:34:39.110Z,24.00
2023-05-18T12:37:07.539Z,23.10
2023-05-18T12:39:37.566Z,22.80
2023-05-18T12:42:12.359Z,23.20
2023-05-18T12:44:42.109Z,23.60
2023-05-18T12:47:11.244Z,24.30
2023-05-18T12:49:40.271Z,24.80
2023-05-18T12:52:12.509Z,24.70
2023-05-18T12:54:55.585Z,24.20
2023-05-18T12:57:26.956Z,24.10
2023-05-18T12:59:55.517Z,24.00
2023-05-18T13:02:33.588Z,25.00
2023-05-18T13:05:08.816Z,24.90
2023-05-18T13:07:37.360Z,25.50
2023-05-18T13:10:11.458Z,26.00
2023-05-18T13:12:40.812Z,25.50
2023-05-18T13:15:10.147Z,26.20
2023-05-18T13:17:40.304Z,26.30
2023-05-18T13:20:13.587Z,25.60
2023-05-18T13:22:41.896Z,26.00
2023-05-18T13:25:11.792Z,26.70
2023-05-18T13:27:40.011Z,24.60
2023-05-18T13:30:08.933Z,24.20
2023-05-18T13:32:37.265Z,22.70
2023-05-18T13:35:06.419Z,22.10
2023-05-18T13:37:34.652Z,22.30
2023-05-18T13:40:02.988Z,22.70
2023-05-18T13:42:32.774Z,22.80
2023-05-18T13:45:00.922Z,24.30
2023-05-18T13:47:29.220Z,24.90
2023-05-18T13:49:57.449Z,24.60
2023-05-18T13:52:26.034Z,24.00
2023-05-18T13:54:54.232Z,23.70
2023-05-18T13:57:23.858Z,23.90
2023-05-18T13:59:53.777Z,24.20
2023-05-18T14:02:22.116Z,24.20
2023-05-18T14:04:50.317Z,24.00
2023-05-18T14:07:18.486Z,22.40
2023-05-18T14:09:46.738Z,22.40
2023-05-18T14:12:14.904Z,22.50
2023-05-18T14:14:43.414Z,23.30
2023-05-18T14:17:13.598Z,24.00
2023-05-18T14:19:41.921Z,24.20
2023-05-18T14:22:10.082Z,24.20
2023-05-18T14:24:38.301Z,24.50
2023-05-18T14:27:06.638Z,24.10
2023-05-18T14:29:35.980Z,23.00
2023-05-18T14:32:04.517Z,22.90
2023-05-18T14:34:34.012Z,22.70
2023-05-18T14:37:02.223Z,22.40
2023-05-18T14:39:30.494Z,22.20
2023-05-18T14:41:58.776Z,21.60
2023-05-18T14:44:26.956Z,22.00
2023-05-18T14:46:55.148Z,22.70
2023-05-18T14:49:23.384Z,23.70
2023-05-18T14:51:52.918Z,24.20
2023-05-18T14:54:22.175Z,24.70
2023-05-18T14:56:50.348Z,25.40
2023-05-18T14:59:18.576Z,26.10
2023-05-18T15:01:46.786Z,26.10
2023-05-18T15:04:15.401Z,26.60
2023-05-18T15:06:43.598Z,24.80
2023-05-18T15:09:14.934Z,24.90
2023-05-18T15:11:43.114Z,24.60
2023-05-18T15:14:11.364Z,24.60
2023-05-18T15:16:39.894Z,25.00
2023-05-18T15:19:08.261Z,24.80
2023-05-18T15:21:36.498Z,23.80
2023-05-18T15:24:04.808Z,22.90
2023-05-18T15:26:34.730Z,22.80
2023-05-18T15:29:03.211Z,22.50
2023-05-18T15:31:32.870Z,22.20
2023-05-18T15:34:01.153Z,21.50
2023-05-18T15:36:29.338Z,21.40
2023-05-18T15:38:57.490Z,21.20
2023-05-18T15:41:26.214Z,20.60
2023-05-18T15:43:55.821Z,20.70
2023-05-18T15:46:24.162Z,21.10
2023-05-18T15:48:52.378Z,21.60
2023-05-18T15:51:20.555Z,21.50
2023-05-18T15:53:48.692Z,21.10
2023-05-18T15:56:18.647Z,21.20
2023-05-18T15:58:47.060Z,20.90
2023-05-18T16:01:16.676Z,20.30
2023-05-18T16:03:45.046Z,20.50
2023-05-18T16:06:13.343Z,20.60
2023-05-18T16:08:41.599Z,20.10
2023-05-18T16:11:09.836Z,19.60
2023-05-18T16:13:37.961Z,19.10
2023-05-18T16:16:08.757Z,18.90
2023-05-18T16:18:38.339Z,19.80
2023-05-18T16:21:06.808Z,20.40
2023-05-18T16:23:34.953Z,20.20
2023-05-18T16:26:05.315Z,19.40
2023-05-18T16:28:33.611Z,19.20
2023-05-18T16:31:03.574Z,19.50
2023-05-18T16:33:31.780Z,19.10
2023-05-18T16:36:01.679Z,19.40
2023-05-18T16:38:31.220Z,20.00
2023-05-18T16:40:59.924Z,20.30
2023-05-18T16:43:28.170Z,19.50
2023-05-18T16:45:56.506Z,19.20
2023-05-18T16:48:24.770Z,19.40
2023-05-18T16:50:53.096Z,19.60
2023-05-18T16:53:22.627Z,19.80
2023-05-18T16:55:50.887Z,19.30
2023-05-18T16:58:19.247Z,19.30
2023-05-18T17:00:47.432Z,18.90
2023-05-18T17:03:17.316Z,18.40
2023-05-18T17:05:45.682Z,18.00
2023-05-18T17:08:14.047Z,17.80
2023-05-18T17:10:43.628Z,17.60
2023-05-18T17:13:11.828Z,18.10
2023-05-18T17:15:40.056Z,18.50
2023-05-18T17:18:08.328Z,18.20
2023-05-18T17:20:36.561Z,17.90
2023-05-18T17:23:04.701Z,17.70
2023-05-18T17:25:33.046Z,17.40
2023-05-18T17:28:02.558Z,16.90
2023-05-18T17:30:31.061Z,16.60
2023-05-18T17:32:59.510Z,16.20
2023-05-18T17:35:27.793Z,16.00
2023-05-18T17:37:56.032Z,15.90
2023-05-18T17:40:24.314Z,15.90
2023-05-18T17:42:52.520Z,15.50
2023-05-18T17:45:22.055Z,15.50
2023-05-18T17:47:50.214Z,15.40
2023-05-18T17:50:18.430Z,15.30
2023-05-18T17:52:46.712Z,15.10
2023-05-18T17:55:15.122Z,15.00
2023-05-18T17:57:45.269Z,14.90
2023-05-18T18:00:14.334Z,14.90
2023-05-18T18:02:44.068Z,14.90
2023-05-18T18:05:12.983Z,14.80
2023-05-18T18:07:41.212Z,14.60
2023-05-18T18:10:09.898Z,14.50
2023-05-18T18:12:38.119Z,14.40
2023-05-18T18:15:06.783Z,14.30
2023-05-18T18:17:35.013Z,14.10
2023-05-18T18:20:05.667Z,14.10
2023-05-18T18:22:35.861Z,14.00
2023-05-18T18:25:04.371Z,13.90
2023-05-18T18:27:32.547Z,13.80
2023-05-18T18:30:00.791Z,13.70
2023-05-18T18:32:29.008Z,13.60
2023-05-18T18:34:57.225Z,13.40
2023-05-18T18:37:27.605Z,13.30
2023-05-18T18:39:55.837Z,13.20
2023-05-18T18:42:23.978Z,13.00
2023-05-18T18:44:56.421Z,12.90
2023-05-18T18:47:24.766Z,12.90
2023-05-18T18:49:52.938Z,12.80
2023-05-18T18:52:21.236Z,12.70
2023-05-18T18:54:51.113Z,12.60
2023-05-18T18:57:19.290Z,12.60
2023-05-18T18:59:47.484Z,12.50
2023-05-18T19:02:16.250Z,12.40
2023-05-18T19:04:44.597Z,12.30
2023-05-18T19:07:12.808Z,12.30
2023-05-18T19:09:41.047Z,12.20
2023-05-18T19:12:10.994Z,12.20
2023-05-18T19:14:39.186Z,12.10
2023-05-18T19:17:07.392Z,12.10
2023-05-18T19:19:37.197Z,12.00
2023-05-18T19:22:05.692Z,12.00
2023-05-18T19:24:33.835Z,11.90
2023-05-18T19:27:02.055Z,11.80
2023-05-18T19:29:32.290Z,11.80
2023-05-18T19:32:00.711Z,11.80
2023-05-18T19:34:29.020Z,11.70
2023-05-18T19:36:57.837Z,11.70
2023-05-18T19:39:26.032Z,11.70
2023-05-18T19:41:55.166Z,11.70
2023-05-18T19:44:23.423Z,11.60
2023-05-18T19:46:53.000Z,11.60
2023-05-18T19:49:21.173Z,11.60
2023-05-18T19:51:49.449Z,11.50
2023-05-18T19:54:17.640Z,11.50
2023-05-18T19:56:45.818Z,11.50
2023-05-18T19:59:14.346Z,11.50
2023-05-18T20:01:42.629Z,11.40
2023-05-18T20:04:12.242Z,11.40
2023-05-18T20:06:40.570Z,11.40
2023-05-18T20:09:10.058Z,11.30
2023-05-18T20:11:38.793Z,11.30
2023-05-18T20:14:08.457Z,11.20
2023-05-18T20:16:39.624Z,11.20
2023-05-18T20:19:08.346Z,11.10
2023-05-18T20:21:37.963Z,11.10
2023-05-18T20:24:06.598Z,11.10
2023-05-18T20:26:34.773Z,11.00
2023-05-18T20:29:02.944Z,11.00
2023-05-18T20:31:31.181Z,11.00
2023-05-18T20:33:59.413Z,10.90
2023-05-18T20:36:27.608Z,10.90
2023-05-18T20:38:57.293Z,10.90
2023-05-18T20:41:25.851Z,10.90
2023-05-18T20:43:54.259Z,10.80
2023-05-18T20:46:24.838Z,10.80
2023-05-18T20:48:57.449Z,10.80
2023-05-18T20:51:25.917Z,10.70
2023-05-18T20:53:54.092Z,10.70
2023-05-18T20:56:23.808Z,10.60
2023-05-18T20:58:51.999Z,10.60
2023-05-18T21:01:20.917Z,10.50
2023-05-18T21:03:49.231Z,10.50
2023-05-18T21:06:17.510Z,10.50
2023-05-18T21:08:45.717Z,10.40
2023-05-18T21:11:13.936Z,10.40
2023-05-18T21:13:43.498Z,10.30
2023-05-18T21:16:11.939Z,10.30
2023-05-18T21:18:40.565Z,10.20
2023-05-18T21:21:08.856Z,10.20
2023-05-18T21:23:37.050Z,10.20
2023-05-18T21:26:05.401Z,10.20
2023-05-18T21:28:33.640Z,10.10
2023-05-18T21:31:04.069Z,10.10
2023-05-18T21:33:32.317Z,10.00
2023-05-18T21:36:01.563Z,10.00
2023-05-18T21:38:29.753Z,10.00
2023-05-18T21:40:58.503Z,10.00
2023-05-18T21:43:27.157Z,10.00
2023-05-18T21:45:55.359Z,10.00
2023-05-18T21:48:24.894Z,10.00
2023-05-18T21:50:53.390Z,10.00
2023-05-18T21:53:21.676Z,10.00
2023-05-18T21:55:49.937Z,10.00
2023-05-18T21:58:18.205Z,10.00
2023-05-18T22:00:46.497Z,10.00
2023-05-18T22:03:14.634Z,10.10
2023-05-18T22:05:44.807Z,10.00
2023-05-18T22:08:13.116Z,10.00
2023-05-18T22:10:41.578Z,10.10
2023-05-18T22:13:09.881Z,10.10
2023-05-18T22:15:40.123Z,10.10
2023-05-18T22:18:08.504Z,10.10
2023-05-18T22:20:36.813Z,10.10
2023-05-18T22:23:06.381Z,10.10
2023-05-18T22:25:34.651Z,10.10
2023-05-18T22:28:03.196Z,10.20
2023-05-18T22:30:33.578Z,10.20
2023-05-18T22:33:02.052Z,10.20
2023-05-18T22:35:30.449Z,10.20
2023-05-18T22:37:58.632Z,10.30
2023-05-18T22:40:28.283Z,10.30
2023-05-18T22:42:57.256Z,10.30
2023-05-18T22:45:25.631Z,10.30
2023-05-18T22:47:54.005Z,10.30
2023-05-18T22:50:22.271Z,10.20
2023-05-18T22:52:50.473Z,10.10
2023-05-18T22:55:18.789Z,10.10
2023-05-18T22:57:48.329Z,10.00
2023-05-18T23:00:16.637Z,9.90
2023-05-18T23:02:45.137Z,9.90
2023-05-18T23:05:13.503Z,9.80
2023-05-18T23:07:41.853Z,9.70
2023-05-18T23:10:11.224Z,9.60
2023-05-18T23:12:40.223Z,9.50
2023-05-18T23:15:10.772Z,9.40
2023-05-18T23:17:39.858Z,9.30
2023-05-18T23:20:10.435Z,9.20
2023-05-18T23:22:38.614Z,9.00
2023-05-18T23:25:08.665Z,9.00
2023-05-18T23:27:36.956Z,8.90
2023-05-18T23:30:05.437Z,8.80
2023-05-18T23:32:35.880Z,8.70
2023-05-18T23:35:04.700Z,8.70
2023-05-18T23:37:33.334Z,8.60
2023-05-18T23:40:02.185Z,8.50
2023-05-18T23:42:30.660Z,8.40
2023-05-18T23:44:59.166Z,8.30
2023-05-18T23:47:27.603Z,8.30
2023-05-18T23:49:57.477Z,8.20
2023-05-18T23:52:26.648Z,8.20
2023-05-18T23:54:55.877Z,8.20
2023-05-18T23:57:24.907Z,8.20
2023-05-18T23:59:53.411Z,8.10
